NKS1612 KMCO-KFLL
Flight info
| Callsign | NKS1612 |
|---|---|
| Flight time | N/A |
| Altitude | 21000 |
| Route | DDANY3 JIPOD CUUDA3 |
| Aircraft | A21N/M-SDE2E3FGHIRWXY/LB1 |
Departure
| Time | 2026-05-03 22:55 |
|---|---|
| Airport | Orlando International Airport (KMCO) |
Arrival
| Time | N/A |
|---|---|
| Airport | Fort Lauderdale Hollywood International Airport (KFLL) |
| Time | Latitude | Longitude | Altitude | Speed | Heading |
|---|---|---|---|---|---|
| 2026-05-03 22:20 | 28.43327 | -81.31569 | 100 ft | 0 kts | 16° |
| 2026-05-03 22:41 | 28.43326 | -81.31570 | 100 ft | 2 kts | 16° |
| 2026-05-03 22:41 | 28.43303 | -81.31577 | 99 ft | 2 kts | 16° |
| 2026-05-03 22:41 | 28.43282 | -81.31582 | 100 ft | 4 kts | 350° |
| 2026-05-03 22:41 | 28.43266 | -81.31571 | 98 ft | 4 kts | 278° |
| 2026-05-03 22:42 | 28.43265 | -81.31543 | 97 ft | 2 kts | 271° |
| 2026-05-03 22:42 | 28.43265 | -81.31541 | 100 ft | 0 kts | 271° |
| 2026-05-03 22:45 | 28.43265 | -81.31543 | 100 ft | 1 kts | 271° |
| 2026-05-03 22:45 | 28.43265 | -81.31555 | 100 ft | 3 kts | 271° |
| 2026-05-03 22:45 | 28.43266 | -81.31564 | 100 ft | 1 kts | 271° |
| 2026-05-03 22:45 | 28.43266 | -81.31568 | 100 ft | 0 kts | 278° |
| 2026-05-03 22:46 | 28.43266 | -81.31569 | 100 ft | 0 kts | 278° |
| 2026-05-03 22:46 | 28.43269 | -81.31593 | 100 ft | 6 kts | 279° |
| 2026-05-03 22:46 | 28.43279 | -81.31651 | 100 ft | 9 kts | 290° |
| 2026-05-03 22:47 | 28.43273 | -81.31749 | 103 ft | 16 kts | 245° |
| 2026-05-03 22:47 | 28.43188 | -81.31843 | 103 ft | 20 kts | 177° |
| 2026-05-03 22:47 | 28.43041 | -81.31840 | 103 ft | 22 kts | 180° |
| 2026-05-03 22:47 | 28.42876 | -81.31834 | 103 ft | 25 kts | 181° |
| 2026-05-03 22:48 | 28.42689 | -81.31837 | 107 ft | 29 kts | 176° |
| 2026-05-03 22:48 | 28.42481 | -81.31834 | 107 ft | 31 kts | 181° |
| 2026-05-03 22:48 | 28.42346 | -81.31723 | 105 ft | 30 kts | 88° |
| 2026-05-03 22:48 | 28.42350 | -81.31484 | 102 ft | 31 kts | 90° |
| 2026-05-03 22:49 | 28.42344 | -81.31231 | 100 ft | 33 kts | 96° |
| 2026-05-03 22:49 | 28.42318 | -81.30965 | 100 ft | 35 kts | 83° |
| 2026-05-03 22:49 | 28.42334 | -81.30728 | 101 ft | 32 kts | 88° |
| 2026-05-03 22:49 | 28.42347 | -81.30480 | 100 ft | 34 kts | 85° |
| 2026-05-03 22:50 | 28.42359 | -81.30234 | 101 ft | 32 kts | 91° |
| 2026-05-03 22:50 | 28.42363 | -81.30023 | 100 ft | 26 kts | 88° |
| 2026-05-03 22:50 | 28.42364 | -81.29834 | 100 ft | 16 kts | 108° |
| 2026-05-03 22:50 | 28.42266 | -81.29795 | 102 ft | 19 kts | 178° |
| 2026-05-03 22:51 | 28.42126 | -81.29791 | 101 ft | 21 kts | 179° |
| 2026-05-03 22:51 | 28.41967 | -81.29788 | 101 ft | 24 kts | 179° |
| 2026-05-03 22:51 | 28.41800 | -81.29789 | 102 ft | 19 kts | 178° |
| 2026-05-03 22:51 | 28.41654 | -81.29785 | 101 ft | 22 kts | 180° |
| 2026-05-03 22:52 | 28.41488 | -81.29785 | 101 ft | 25 kts | 179° |
| 2026-05-03 22:52 | 28.41306 | -81.29784 | 101 ft | 27 kts | 176° |
| 2026-05-03 22:52 | 28.41107 | -81.29788 | 101 ft | 30 kts | 173° |
| 2026-05-03 22:52 | 28.40923 | -81.29779 | 101 ft | 9 kts | 179° |
| 2026-05-03 22:53 | 28.40859 | -81.29776 | 101 ft | 8 kts | 174° |
| 2026-05-03 22:53 | 28.40820 | -81.29720 | 102 ft | 12 kts | 89° |
| 2026-05-03 22:53 | 28.40820 | -81.29650 | 99 ft | 8 kts | 90° |
| 2026-05-03 22:53 | 28.40821 | -81.29580 | 99 ft | 9 kts | 77° |
| 2026-05-03 22:54 | 28.40866 | -81.29556 | 100 ft | 0 kts | 355° |
| 2026-05-03 22:54 | 28.40873 | -81.29556 | 99 ft | 12 kts | 355° |
| 2026-05-03 22:54 | 28.41342 | -81.29562 | 102 ft | 125 kts | 359° |
| 2026-05-03 22:55 | 28.42513 | -81.29586 | 594 ft | 188 kts | 2° |
| 2026-05-03 22:55 | 28.43786 | -81.29583 | 2128 ft | 182 kts | 7° |
| 2026-05-03 22:55 | 28.45013 | -81.29195 | 3043 ft | 193 kts | 27° |
| 2026-05-03 22:55 | 28.46089 | -81.28198 | 3841 ft | 209 kts | 50° |
| 2026-05-03 22:56 | 28.46873 | -81.26647 | 4360 ft | 248 kts | 61° |
| 2026-05-03 22:56 | 28.47951 | -81.24985 | 5351 ft | 268 kts | 50° |
| 2026-05-03 22:56 | 28.49167 | -81.23313 | 6563 ft | 283 kts | 49° |
| 2026-05-03 22:56 | 28.50265 | -81.21410 | 7725 ft | 294 kts | 67° |
| 2026-05-03 22:57 | 28.50805 | -81.19143 | 8911 ft | 304 kts | 78° |
| 2026-05-03 22:57 | 28.51067 | -81.16723 | 10029 ft | 315 kts | 92° |
| 2026-05-03 22:57 | 28.50711 | -81.14184 | 10684 ft | 340 kts | 107° |
| 2026-05-03 22:57 | 28.50060 | -81.11485 | 11202 ft | 368 kts | 108° |
| 2026-05-03 22:58 | 28.49353 | -81.08591 | 11757 ft | 392 kts | 108° |
| 2026-05-03 22:58 | 28.48345 | -81.05655 | 12550 ft | 402 kts | 121° |
| 2026-05-03 22:58 | 28.46770 | -81.03037 | 13362 ft | 401 kts | 137° |
| 2026-05-03 22:58 | 28.44680 | -81.00976 | 13801 ft | 397 kts | 149° |
| 2026-05-03 22:59 | 28.42444 | -80.99137 | 13960 ft | 397 kts | 149° |
| 2026-05-03 22:59 | 28.40222 | -80.97263 | 14009 ft | 398 kts | 148° |
| 2026-05-03 22:59 | 28.38029 | -80.95338 | 14021 ft | 399 kts | 147° |
| 2026-05-03 22:59 | 28.35849 | -80.93382 | 14011 ft | 399 kts | 147° |
| 2026-05-03 23:00 | 28.33679 | -80.91415 | 14013 ft | 399 kts | 146° |
| 2026-05-03 23:00 | 28.31537 | -80.89472 | 14007 ft | 399 kts | 147° |
| 2026-05-03 23:00 | 28.29454 | -80.87376 | 14008 ft | 404 kts | 139° |
| 2026-05-03 23:00 | 28.27689 | -80.84867 | 14010 ft | 411 kts | 128° |
| 2026-05-03 23:01 | 28.26363 | -80.81981 | 14017 ft | 416 kts | 117° |
| 2026-05-03 23:01 | 28.25274 | -80.78937 | 14014 ft | 416 kts | 115° |
| 2026-05-03 23:01 | 28.24206 | -80.75884 | 14004 ft | 416 kts | 115° |
| 2026-05-03 23:01 | 28.23128 | -80.72837 | 14001 ft | 416 kts | 116° |
| 2026-05-03 23:02 | 28.22038 | -80.69785 | 14008 ft | 426 kts | 116° |
| 2026-05-03 23:02 | 28.20907 | -80.66563 | 14010 ft | 446 kts | 113° |
| 2026-05-03 23:02 | 28.20201 | -80.63121 | 14004 ft | 453 kts | 99° |
| 2026-05-03 23:02 | 28.20172 | -80.59542 | 13967 ft | 456 kts | 86° |
| 2026-05-03 23:03 | 28.20828 | -80.56026 | 13967 ft | 458 kts | 72° |
| 2026-05-03 23:03 | 28.22139 | -80.52740 | 13959 ft | 458 kts | 59° |
| 2026-05-03 23:03 | 28.24034 | -80.49860 | 13958 ft | 455 kts | 45° |
| 2026-05-03 23:03 | 28.26414 | -80.47531 | 13962 ft | 451 kts | 32° |
| 2026-05-03 23:04 | 28.29157 | -80.45861 | 13960 ft | 445 kts | 18° |
| 2026-05-03 23:04 | 28.32111 | -80.44932 | 13963 ft | 438 kts | 5° |
| 2026-05-03 23:04 | 28.35132 | -80.44549 | 13984 ft | 440 kts | 5° |
| 2026-05-03 23:04 | 28.38071 | -80.43490 | 13973 ft | 449 kts | 21° |
| 2026-05-03 23:05 | 28.40707 | -80.41559 | 13970 ft | 455 kts | 37° |
| 2026-05-03 23:05 | 28.42834 | -80.38890 | 13970 ft | 459 kts | 53° |
| 2026-05-03 23:05 | 28.44294 | -80.35667 | 13974 ft | 460 kts | 70° |
| 2026-05-03 23:05 | 28.44975 | -80.32132 | 13974 ft | 458 kts | 86° |
| 2026-05-03 23:06 | 28.44830 | -80.28541 | 13977 ft | 453 kts | 103° |
| 2026-05-03 23:06 | 28.43898 | -80.25205 | 13977 ft | 446 kts | 118° |
| 2026-05-03 23:06 | 28.42234 | -80.22275 | 13975 ft | 437 kts | 135° |
| 2026-05-03 23:06 | 28.39991 | -80.20018 | 13976 ft | 427 kts | 151° |